Time;durP1;ratioP1;P1;durP2;ratioP2;P2;SDS_P1;SDS_P2;PMS_P1;PMS_P2;Temp;Humidity;BMP_temperature;BMP_pressure;BME280_temperature;BME280_humidity;BME280_pressure;Samples;Min_cycle;Max_cycle;Signal;HPM_P1;HPM_P2
2023/12/11 00:01:03;;;;;;;6.28;1.67;;;11.10;98.50;;;;;;6098868;23;20353;-79
2023/12/11 00:03:28;;;;;;;7.38;1.67;;;11.10;98.50;;;;;;6099082;23;20002;-79
2023/12/11 00:05:54;;;;;;;10.02;1.98;;;11.10;98.50;;;;;;6099769;23;20084;-79
2023/12/11 00:08:20;;;;;;;9.82;2.00;;;11.00;98.50;;;;;;6124894;23;20042;-79
2023/12/11 00:10:45;;;;;;;7.55;1.83;;;11.00;98.60;;;;;;6124638;23;20002;-77
2023/12/11 00:13:11;;;;;;;12.02;2.00;;;10.90;98.60;;;;;;6124707;23;20072;-79
2023/12/11 00:15:38;;;;;;;10.35;2.40;;;10.90;98.70;;;;;;6125182;23;20077;-79
2023/12/11 00:18:04;;;;;;;6.47;1.70;;;10.90;98.70;;;;;;6125055;23;20002;-79
2023/12/11 00:20:29;;;;;;;7.13;1.60;;;10.90;98.70;;;;;;6125511;23;20057;-77
2023/12/11 00:22:55;;;;;;;14.18;2.97;;;10.90;98.70;;;;;;6098444;23;20005;-78
2023/12/11 00:25:20;;;;;;;9.55;2.00;;;10.90;98.70;;;;;;6124739;23;20308;-79
2023/12/11 00:27:46;;;;;;;11.43;2.17;;;10.90;98.70;;;;;;6124669;23;20085;-79
2023/12/11 00:30:14;;;;;;;7.63;1.45;;;10.90;98.70;;;;;;6124045;23;20002;-77
2023/12/11 00:32:39;;;;;;;9.23;1.60;;;10.90;98.60;;;;;;6123838;23;20018;-79
2023/12/11 00:35:05;;;;;;;6.40;1.77;;;10.90;98.60;;;;;;6124983;23;20002;-77
2023/12/11 00:37:31;;;;;;;7.03;1.20;;;10.90;98.60;;;;;;6098192;23;20037;-76
2023/12/11 00:39:56;;;;;;;8.50;1.67;;;10.90;98.70;;;;;;6097746;23;20041;-77
2023/12/11 00:42:22;;;;;;;9.20;1.60;;;10.90;98.60;;;;;;6124550;23;20005;-79
2023/12/11 00:44:48;;;;;;;6.18;1.23;;;10.90;98.70;;;;;;6124912;23;20045;-79
2023/12/11 00:47:13;;;;;;;9.73;1.98;;;10.90;98.70;;;;;;6096784;23;20033;-77
2023/12/11 00:49:39;;;;;;;8.13;1.58;;;10.90;98.70;;;;;;6097714;23;20009;-78
2023/12/11 00:52:05;;;;;;;5.32;1.33;;;10.80;98.70;;;;;;6095811;23;20005;-76
2023/12/11 00:54:30;;;;;;;8.00;1.42;;;10.80;98.70;;;;;;6096152;23;20006;-79
2023/12/11 00:56:56;;;;;;;6.35;1.50;;;10.80;98.70;;;;;;6121872;23;20002;-77
2023/12/11 00:59:22;;;;;;;6.10;1.60;;;10.80;98.80;;;;;;6095142;23;20081;-78
2023/12/11 01:01:48;;;;;;;11.70;2.05;;;10.70;98.80;;;;;;6096175;23;20077;-77
2023/12/11 01:04:14;;;;;;;7.15;1.77;;;10.70;98.90;;;;;;6121604;23;20331;-77
2023/12/11 01:06:41;;;;;;;10.32;1.90;;;10.70;98.90;;;;;;6120912;23;19997;-78
2023/12/11 01:09:07;;;;;;;19.85;2.88;;;10.70;98.80;;;;;;6121483;23;19997;-78
2023/12/11 01:11:32;;;;;;;12.20;2.03;;;10.70;98.80;;;;;;6097933;23;20013;-76
2023/12/11 01:13:58;;;;;;;9.55;2.13;;;10.70;98.80;;;;;;6100532;23;20017;-77
2023/12/11 01:16:23;;;;;;;9.88;1.98;;;10.70;98.80;;;;;;6124513;23;19998;-79
2023/12/11 01:18:50;;;;;;;10.95;2.10;;;10.70;98.80;;;;;;6096113;23;20010;-77
2023/12/11 01:21:16;;;;;;;10.27;1.80;;;10.70;98.80;;;;;;6123295;23;20002;-78
2023/12/11 01:23:42;;;;;;;11.18;2.17;;;10.70;98.80;;;;;;6122610;23;20033;-77
2023/12/11 01:26:08;;;;;;;11.52;2.20;;;10.70;98.70;;;;;;6097059;23;20002;-78
2023/12/11 01:28:34;;;;;;;9.93;2.08;;;10.80;98.70;;;;;;6091792;23;20020;-78
2023/12/11 01:30:59;;;;;;;8.95;2.00;;;10.80;98.70;;;;;;6093947;23;20006;-78
2023/12/11 01:33:25;;;;;;;8.15;1.77;;;10.80;98.50;;;;;;6094352;23;20010;-77
2023/12/11 01:35:51;;;;;;;6.00;1.65;;;10.80;98.50;;;;;;6096775;23;20009;-78
2023/12/11 01:38:17;;;;;;;9.82;1.98;;;10.80;98.50;;;;;;6095070;23;20007;-79
2023/12/11 01:40:43;;;;;;;7.93;1.80;;;10.80;98.50;;;;;;6092259;23;20002;-79
2023/12/11 01:43:13;;;;;;;6.50;2.47;;;10.80;98.40;;;;;;6095651;23;20003;-80
2023/12/11 01:45:39;;;;;;;7.57;1.67;;;10.80;98.30;;;;;;6095204;23;20436;-79
2023/12/11 01:48:05;;;;;;;11.88;2.10;;;10.80;98.40;;;;;;6093563;23;20464;-80
2023/12/11 01:50:31;;;;;;;8.98;1.90;;;10.80;98.40;;;;;;6092567;23;20033;-78
2023/12/11 01:52:58;;;;;;;21.20;2.80;;;10.80;98.30;;;;;;6092127;23;20500;-78
2023/12/11 01:55:24;;;;;;;11.55;2.45;;;10.90;98.30;;;;;;6094062;23;20069;-78
2023/12/11 01:57:50;;;;;;;12.05;2.75;;;10.80;98.20;;;;;;6091376;23;20010;-79
2023/12/11 02:00:16;;;;;;;13.93;2.72;;;10.80;98.20;;;;;;6091696;23;20471;-78
2023/12/11 02:02:42;;;;;;;8.02;1.70;;;10.80;98.20;;;;;;6093831;23;20069;-78
2023/12/11 02:05:08;;;;;;;10.40;1.88;;;10.80;98.20;;;;;;6094877;23;20006;-77
2023/12/11 02:07:33;;;;;;;8.60;1.70;;;10.80;98.10;;;;;;6092019;23;20365;-79
2023/12/11 02:09:59;;;;;;;5.38;1.83;;;10.80;98.10;;;;;;6094888;23;20408;-78
2023/12/11 02:12:25;;;;;;;7.05;1.42;;;10.90;98.10;;;;;;6092299;23;20089;-76
2023/12/11 02:14:50;;;;;;;9.35;1.85;;;10.80;98.00;;;;;;6094300;23;20013;-79
2023/12/11 02:17:16;;;;;;;6.95;1.58;;;10.90;98.10;;;;;;6093679;23;20448;-79
2023/12/11 02:19:41;;;;;;;4.10;1.38;;;10.90;98.10;;;;;;6097542;23;20007;-78
2023/12/11 02:22:08;;;;;;;5.32;1.27;;;10.90;98.10;;;;;;6095284;23;20082;-79
2023/12/11 02:24:42;;;;;;;7.78;1.40;;;10.80;98.10;;;;;;6093066;23;20003;-78
2023/12/11 02:27:08;;;;;;;9.55;1.92;;;10.80;98.20;;;;;;6103221;23;20526;-77
2023/12/11 02:29:33;;;;;;;7.30;2.00;;;10.80;98.20;;;;;;6124273;23;20009;-76
2023/12/11 02:31:59;;;;;;;11.10;1.70;;;10.80;98.30;;;;;;6128568;23;20002;-79
2023/12/11 02:34:24;;;;;;;8.30;1.40;;;10.90;98.30;;;;;;6099241;23;20002;-79
2023/12/11 02:36:50;;;;;;;12.32;2.38;;;10.90;98.30;;;;;;6098960;23;20006;-79
2023/12/11 02:39:16;;;;;;;9.20;2.00;;;10.80;98.30;;;;;;6098870;23;20006;-78
2023/12/11 02:41:41;;;;;;;5.10;1.30;;;10.90;98.30;;;;;;6124362;23;20130;-78
2023/12/11 02:44:07;;;;;;;9.70;1.80;;;10.80;98.30;;;;;;6098902;23;20428;-77
2023/12/11 02:46:32;;;;;;;8.63;1.58;;;10.80;98.40;;;;;;6123646;23;20097;-78
2023/12/11 02:48:58;;;;;;;9.50;2.00;;;10.80;98.40;;;;;;6124155;23;20470;-79
2023/12/11 02:51:24;;;;;;;8.40;1.58;;;10.80;98.40;;;;;;6099380;23;20005;-76
2023/12/11 02:53:49;;;;;;;9.00;1.88;;;10.80;98.50;;;;;;6124290;23;20025;-79
2023/12/11 02:56:15;;;;;;;13.57;2.75;;;10.80;98.50;;;;;;6124651;23;20038;-77
2023/12/11 02:58:43;;;;;;;9.05;1.73;;;10.90;98.60;;;;;;6123721;23;20006;-79
2023/12/11 03:01:08;;;;;;;7.18;1.67;;;10.90;98.60;;;;;;6099800;23;20062;-78
2023/12/11 03:03:34;;;;;;;8.30;1.95;;;10.80;98.60;;;;;;6098227;23;20037;-79
2023/12/11 03:06:03;;;;;;;5.78;1.65;;;10.80;98.70;;;;;;6099220;23;19998;-77
2023/12/11 03:08:28;;;;;;;8.52;1.60;;;10.80;98.70;;;;;;6096633;23;20010;-76
2023/12/11 03:10:54;;;;;;;5.90;1.30;;;10.80;98.80;;;;;;6098793;23;20002;-78
2023/12/11 03:13:20;;;;;;;8.55;1.73;;;10.80;98.80;;;;;;6098728;23;20002;-79
2023/12/11 03:15:45;;;;;;;6.15;1.30;;;10.80;98.90;;;;;;6099978;23;20061;-79
2023/12/11 03:18:11;;;;;;;6.47;1.10;;;10.80;98.90;;;;;;6125426;23;20005;-79
2023/12/11 03:20:36;;;;;;;5.03;1.00;;;10.80;99.00;;;;;;6100007;23;19998;-78
2023/12/11 03:23:02;;;;;;;5.40;1.25;;;10.80;99.00;;;;;;6101221;23;20052;-79
2023/12/11 03:25:27;;;;;;;5.32;1.30;;;10.80;99.00;;;;;;6125929;23;20008;-80
2023/12/11 03:27:53;;;;;;;6.60;1.42;;;10.80;99.10;;;;;;6095168;23;20021;-78
2023/12/11 03:30:19;;;;;;;4.85;1.23;;;10.70;99.20;;;;;;6098526;23;20007;-79
2023/12/11 03:32:44;;;;;;;6.15;1.48;;;10.70;99.30;;;;;;6096604;23;20087;-77
2023/12/11 03:35:10;;;;;;;5.07;1.20;;;10.70;99.30;;;;;;6096964;23;20089;-79
2023/12/11 03:37:36;;;;;;;6.65;1.38;;;10.70;99.30;;;;;;6094933;23;20074;-78
2023/12/11 03:40:02;;;;;;;7.50;1.35;;;10.80;99.40;;;;;;6095557;23;20009;-79
2023/12/11 03:42:27;;;;;;;4.97;1.33;;;10.80;99.30;;;;;;6096265;23;20005;-79
2023/12/11 03:44:54;;;;;;;5.28;1.30;;;10.80;99.30;;;;;;6094207;23;20003;-77
2023/12/11 03:47:21;;;;;;;2.60;0.95;;;10.80;99.20;;;;;;6096321;23;20029;-78
2023/12/11 03:49:47;;;;;;;7.00;1.52;;;10.80;99.20;;;;;;6093231;23;20010;-79
2023/12/11 03:52:12;;;;;;;5.63;1.58;;;10.80;99.20;;;;;;6098796;23;20006;-79
2023/12/11 03:54:38;;;;;;;7.43;2.22;;;10.80;99.30;;;;;;6098483;23;20007;-78
2023/12/11 03:57:04;;;;;;;10.32;2.92;;;10.70;99.20;;;;;;6095995;23;20007;-79
2023/12/11 03:59:29;;;;;;;6.70;1.60;;;10.80;99.30;;;;;;6096446;23;20059;-79
2023/12/11 04:01:55;;;;;;;8.98;1.67;;;10.70;99.20;;;;;;6095196;23;20006;-78
2023/12/11 04:04:21;;;;;;;5.47;1.58;;;10.70;99.30;;;;;;6095088;23;20030;-77
2023/12/11 04:06:46;;;;;;;5.22;1.20;;;10.80;99.30;;;;;;6094575;23;20002;-79
2023/12/11 04:09:12;;;;;;;5.20;1.13;;;10.80;99.30;;;;;;6095079;23;20018;-79
2023/12/11 04:11:37;;;;;;;5.15;1.15;;;10.70;99.20;;;;;;6095805;23;20006;-78
2023/12/11 04:14:03;;;;;;;10.00;1.58;;;10.80;99.30;;;;;;6095618;23;20053;-79
2023/12/11 04:16:29;;;;;;;4.68;1.33;;;10.70;99.30;;;;;;6093407;23;20345;-78
2023/12/11 04:18:54;;;;;;;6.55;1.17;;;10.80;99.20;;;;;;6094390;23;20006;-78
2023/12/11 04:21:21;;;;;;;5.03;1.55;;;10.80;99.20;;;;;;6095578;23;20009;-78
2023/12/11 04:23:46;;;;;;;6.28;1.20;;;10.80;99.50;;;;;;6095434;23;20005;-79
2023/12/11 04:26:13;;;;;;;6.05;1.73;;;10.80;99.20;;;;;;6097003;23;20002;-77
2023/12/11 04:28:39;;;;;;;6.82;1.42;;;10.80;99.20;;;;;;6093307;23;20480;-78
2023/12/11 04:31:05;;;;;;;10.80;1.73;;;10.80;99.20;;;;;;6095446;23;20032;-77
2023/12/11 04:33:32;;;;;;;6.82;1.60;;;10.80;99.20;;;;;;6094631;23;20097;-80
2023/12/11 04:35:58;;;;;;;8.52;1.60;;;10.70;99.30;;;;;;6093639;23;20006;-80
2023/12/11 04:38:24;;;;;;;9.82;1.98;;;10.70;99.40;;;;;;6094833;23;20076;-79
2023/12/11 04:40:49;;;;;;;9.20;1.75;;;10.70;99.50;;;;;;6096243;23;19998;-77
2023/12/11 04:43:15;;;;;;;6.15;1.52;;;10.80;99.60;;;;;;6097460;23;20003;-79
2023/12/11 04:45:41;;;;;;;9.75;2.20;;;10.70;99.60;;;;;;6094622;23;19999;-79
2023/12/11 04:48:06;;;;;;;9.00;2.30;;;10.80;99.60;;;;;;6093933;23;20009;-79
2023/12/11 04:50:32;;;;;;;4.38;1.40;;;10.80;99.50;;;;;;6093423;23;20011;-77
2023/12/11 04:52:58;;;;;;;6.45;1.40;;;10.80;99.60;;;;;;6092067;23;20372;-78
2023/12/11 04:55:23;;;;;;;7.00;1.38;;;10.90;99.50;;;;;;6091101;23;20010;-79
2023/12/11 04:57:49;;;;;;;9.00;2.13;;;10.80;99.50;;;;;;6090861;23;20006;-77
2023/12/11 05:00:15;;;;;;;7.05;1.80;;;10.80;99.40;;;;;;6091448;23;20031;-79
2023/12/11 05:02:42;;;;;;;5.30;1.40;;;10.80;99.50;;;;;;6092083;23;20396;-76
2023/12/11 05:05:08;;;;;;;8.00;1.60;;;10.80;99.50;;;;;;6091841;23;20145;-79
2023/12/11 05:07:33;;;;;;;9.73;1.48;;;10.80;99.50;;;;;;6091513;23;20006;-78
2023/12/11 05:09:59;;;;;;;7.75;1.70;;;10.90;99.50;;;;;;6092024;23;20508;-79
2023/12/11 05:12:24;;;;;;;5.72;1.35;;;10.90;99.50;;;;;;6092321;23;20011;-77
2023/12/11 05:14:50;;;;;;;5.85;1.40;;;10.90;99.50;;;;;;6092418;23;20029;-79
2023/12/11 05:17:16;;;;;;;8.98;1.65;;;10.90;99.40;;;;;;6093894;23;20026;-78
2023/12/11 05:19:41;;;;;;;6.35;1.63;;;10.90;99.40;;;;;;6098834;23;20002;-77
2023/12/11 05:22:07;;;;;;;10.32;1.73;;;10.90;99.30;;;;;;6097767;23;20487;-79
2023/12/11 05:24:32;;;;;;;10.98;2.28;;;10.90;99.30;;;;;;6096153;23;20017;-78
2023/12/11 05:26:58;;;;;;;9.23;1.77;;;10.90;99.40;;;;;;6104760;23;20048;-80
2023/12/11 05:29:24;;;;;;;8.70;1.85;;;10.90;99.30;;;;;;6126443;23;19998;-79
2023/12/11 05:31:49;;;;;;;8.05;1.55;;;10.90;99.30;;;;;;6125694;23;20059;-78
2023/12/11 05:34:15;;;;;;;7.63;1.52;;;10.90;99.30;;;;;;6126264;23;20009;-79
2023/12/11 05:36:41;;;;;;;5.82;1.35;;;10.90;99.30;;;;;;6124867;23;20002;-78
2023/12/11 05:39:09;;;;;;;14.55;2.00;;;10.90;99.40;;;;;;6125129;23;20006;-80
2023/12/11 05:41:35;;;;;;;7.53;1.70;;;10.90;99.40;;;;;;6100723;23;20351;-79
2023/12/11 05:44:01;;;;;;;5.95;1.77;;;10.90;99.40;;;;;;6100989;23;20045;-78
2023/12/11 05:46:26;;;;;;;7.70;1.63;;;10.90;99.40;;;;;;6100220;23;20013;-79
2023/12/11 05:48:52;;;;;;;5.45;1.88;;;10.90;99.40;;;;;;6125670;23;20012;-79
2023/12/11 05:51:17;;;;;;;5.15;1.33;;;10.90;99.30;;;;;;6123782;23;20467;-78
2023/12/11 05:53:43;;;;;;;11.60;1.80;;;10.90;99.30;;;;;;6097836;23;20383;-79
2023/12/11 05:56:09;;;;;;;6.32;1.48;;;10.90;99.40;;;;;;6099488;23;20060;-80
2023/12/11 05:58:35;;;;;;;8.70;1.55;;;10.90;99.40;;;;;;6098375;23;20006;-80
2023/12/11 06:01:01;;;;;;;9.52;2.20;;;10.90;99.50;;;;;;6125011;23;20009;-78
2023/12/11 06:03:27;;;;;;;10.85;2.25;;;10.90;99.50;;;;;;6125588;23;19999;-80
2023/12/11 06:05:57;;;;;;;10.27;1.90;;;10.90;99.50;;;;;;6124373;23;20002;-79
2023/12/11 06:08:24;;;;;;;12.63;2.30;;;10.80;99.40;;;;;;6123034;23;20036;-79
2023/12/11 06:10:50;;;;;;;9.27;2.03;;;10.80;99.40;;;;;;6099135;23;20061;-81
2023/12/11 06:13:16;;;;;;;7.32;1.90;;;10.90;99.50;;;;;;6123782;23;20009;-80
2023/12/11 06:15:42;;;;;;;9.77;1.40;;;10.80;99.40;;;;;;6099357;23;20089;-79
2023/12/11 06:18:08;;;;;;;6.55;1.30;;;10.90;99.40;;;;;;6097612;23;20590;-79
2023/12/11 06:20:33;;;;;;;9.13;1.75;;;10.90;99.40;;;;;;6125253;23;20002;-79
2023/12/11 06:22:59;;;;;;;6.80;1.55;;;10.80;99.30;;;;;;6098337;23;20675;-78
2023/12/11 06:25:24;;;;;;;8.75;1.98;;;10.80;99.40;;;;;;6099320;23;20013;-80
2023/12/11 06:27:50;;;;;;;5.13;1.30;;;10.80;99.40;;;;;;6093021;23;20022;-79
2023/12/11 06:30:16;;;;;;;9.15;1.55;;;10.80;99.40;;;;;;6093569;23;20013;-78
2023/12/11 06:32:41;;;;;;;6.20;1.23;;;10.80;99.50;;;;;;6095106;23;20034;-78
2023/12/11 06:35:07;;;;;;;14.57;2.22;;;10.80;99.50;;;;;;6095236;23;20009;-78
2023/12/11 06:37:33;;;;;;;7.15;1.50;;;10.80;99.50;;;;;;6095746;23;20006;-80
2023/12/11 06:39:58;;;;;;;8.15;1.60;;;10.70;99.50;;;;;;6094325;23;20030;-78
2023/12/11 06:42:24;;;;;;;10.23;1.60;;;10.70;99.60;;;;;;6096446;23;20003;-79
2023/12/11 06:44:49;;;;;;;9.15;1.65;;;10.80;99.60;;;;;;6094626;23;20339;-79
2023/12/11 06:47:15;;;;;;;4.13;1.30;;;10.70;99.50;;;;;;6096410;23;20011;-79
2023/12/11 06:49:42;;;;;;;8.60;1.50;;;10.70;99.70;;;;;;6095641;23;20329;-80
2023/12/11 06:52:08;;;;;;;9.15;1.77;;;10.60;99.70;;;;;;6094898;23;20006;-78
2023/12/11 06:54:34;;;;;;;5.63;1.48;;;10.60;99.80;;;;;;6098040;23;20002;-80
2023/12/11 06:56:59;;;;;;;7.20;1.85;;;10.60;99.80;;;;;;6094578;23;20021;-78
2023/12/11 06:59:25;;;;;;;6.72;1.42;;;10.60;99.90;;;;;;6093450;23;20126;-79
2023/12/11 07:01:51;;;;;;;14.32;2.67;;;10.60;99.90;;;;;;6094498;23;20534;-78
2023/12/11 07:04:16;;;;;;;11.25;2.33;;;10.60;99.90;;;;;;6095363;23;20002;-78
2023/12/11 07:06:42;;;;;;;9.18;2.20;;;10.60;99.90;;;;;;6097135;23;20009;-78
2023/12/11 07:09:10;;;;;;;6.55;1.73;;;10.60;99.90;;;;;;6096390;23;20080;-80
2023/12/11 07:11:35;;;;;;;5.07;1.33;;;10.60;99.90;;;;;;6097048;23;20022;-80
2023/12/11 07:14:01;;;;;;;8.40;1.40;;;10.60;99.90;;;;;;6096997;23;20053;-79
2023/12/11 07:16:27;;;;;;;6.30;1.20;;;10.60;99.90;;;;;;6097777;23;20033;-77
2023/12/11 07:18:53;;;;;;;5.43;1.33;;;10.60;99.90;;;;;;6097558;23;20090;-83
2023/12/11 07:21:19;;;;;;;6.38;1.30;;;10.60;99.90;;;;;;6107894;23;20404;-80
2023/12/11 07:23:47;;;;;;;10.20;2.50;;;10.60;99.90;;;;;;6105013;23;20006;-83
2023/12/11 07:26:13;;;;;;;4.43;1.27;;;10.60;99.90;;;;;;6097569;23;20030;-83
2023/12/11 07:28:39;;;;;;;11.57;1.73;;;10.60;99.90;;;;;;6099087;23;20025;-85
2023/12/11 07:31:05;;;;;;;7.45;1.63;;;10.60;99.90;;;;;;6100720;23;20002;-86
2023/12/11 07:33:31;;;;;;;8.27;1.45;;;10.60;99.90;;;;;;6097134;23;20006;-83
2023/12/11 07:35:57;;;;;;;5.20;1.58;;;10.50;99.90;;;;;;6098121;23;20030;-81
2023/12/11 07:38:25;;;;;;;8.95;2.05;;;10.50;99.90;;;;;;6098211;23;20026;-82
2023/12/11 07:40:55;;;;;;;8.48;1.50;;;10.60;99.90;;;;;;6111738;23;19998;-79
2023/12/11 07:43:20;;;;;;;5.75;1.30;;;10.50;99.90;;;;;;6107474;23;20010;-80
2023/12/11 07:45:46;;;;;;;8.50;1.58;;;10.60;99.90;;;;;;6099564;23;20002;-80
2023/12/11 07:48:12;;;;;;;7.32;1.38;;;10.50;99.90;;;;;;6099185;23;20002;-81
2023/12/11 07:50:37;;;;;;;8.52;1.50;;;10.50;99.90;;;;;;6099769;23;20007;-80
2023/12/11 07:53:04;;;;;;;3.88;1.17;;;10.50;99.90;;;;;;6098395;23;20441;-81
2023/12/11 07:55:30;;;;;;;4.75;1.10;;;10.40;99.90;;;;;;6101235;23;20002;-83
2023/12/11 07:57:56;;;;;;;8.18;1.88;;;10.40;99.90;;;;;;6099023;23;20061;-81
2023/12/11 08:00:21;;;;;;;8.15;1.55;;;10.40;99.90;;;;;;6096352;23;20755;-80
2023/12/11 08:02:48;;;;;;;8.75;1.65;;;10.40;99.90;;;;;;6097877;23;20002;-82
2023/12/11 08:05:14;;;;;;;5.97;1.27;;;10.40;99.90;;;;;;6098231;23;20010;-81
2023/12/11 08:07:40;;;;;;;8.85;1.90;;;10.40;99.90;;;;;;6099553;23;20388;-87
2023/12/11 08:10:06;;;;;;;5.68;1.25;;;10.50;99.90;;;;;;6101465;23;20033;-87
2023/12/11 08:12:32;;;;;;;4.53;1.20;;;10.40;99.90;;;;;;6105202;23;20085;-87
2023/12/11 08:14:58;;;;;;;5.70;1.70;;;10.40;99.90;;;;;;6103063;23;20017;-82
2023/12/11 08:17:24;;;;;;;5.03;1.30;;;10.40;99.90;;;;;;6103619;23;20011;-85
2023/12/11 08:19:50;;;;;;;6.57;1.10;;;10.40;99.90;;;;;;6106015;23;20002;-82
2023/12/11 08:22:16;;;;;;;3.72;1.17;;;10.40;99.90;;;;;;6095793;23;20007;-83
2023/12/11 08:24:42;;;;;;;4.68;0.98;;;10.40;99.90;;;;;;6096915;23;20017;-82
2023/12/11 08:27:08;;;;;;;5.32;1.15;;;10.40;99.90;;;;;;6093653;23;20109;-82
2023/12/11 08:29:35;;;;;;;4.70;1.20;;;10.40;99.90;;;;;;6091975;23;20283;-80
2023/12/11 08:32:02;;;;;;;3.15;1.00;;;10.40;99.90;;;;;;6095564;23;20013;-77
2023/12/11 08:34:28;;;;;;;5.22;1.13;;;10.40;99.90;;;;;;6092684;23;20413;-79
2023/12/11 08:36:54;;;;;;;5.55;0.98;;;10.40;99.90;;;;;;6094526;23;20077;-81
2023/12/11 08:39:20;;;;;;;3.33;1.00;;;10.40;99.90;;;;;;6093823;23;20200;-81
2023/12/11 08:41:47;;;;;;;3.53;0.98;;;10.40;99.90;;;;;;6094082;23;20424;-84
2023/12/11 08:44:13;;;;;;;6.32;1.15;;;10.40;99.90;;;;;;6097115;23;20448;-84
2023/12/11 08:46:39;;;;;;;2.13;0.82;;;10.40;99.90;;;;;;6099561;23;20006;-83
2023/12/11 08:49:05;;;;;;;8.13;2.45;;;10.40;99.90;;;;;;6096853;23;20006;-79
2023/12/11 08:51:32;;;;;;;3.70;1.10;;;10.40;99.90;;;;;;6091667;23;20085;-84
2023/12/11 08:53:58;;;;;;;6.03;1.30;;;10.40;99.90;;;;;;6091537;23;20093;-80
2023/12/11 08:56:23;;;;;;;7.20;1.30;;;10.40;99.90;;;;;;6091250;23;20150;-80
2023/12/11 08:58:50;;;;;;;6.05;1.35;;;10.40;99.90;;;;;;6090894;23;20010;-80
2023/12/11 09:01:15;;;;;;;5.82;1.30;;;10.40;99.90;;;;;;6092941;23;20448;-79
2023/12/11 09:03:44;;;;;;;2.83;1.23;;;10.50;99.90;;;;;;6093391;23;20030;-80
2023/12/11 09:06:10;;;;;;;6.15;1.50;;;10.50;99.90;;;;;;6092012;23;20002;-81
2023/12/11 09:08:35;;;;;;;3.60;1.13;;;10.50;99.90;;;;;;6095009;23;20009;-81
2023/12/11 09:11:01;;;;;;;3.22;1.00;;;10.50;99.90;;;;;;6095599;23;20578;-80
2023/12/11 09:13:27;;;;;;;2.85;0.80;;;10.60;99.90;;;;;;6093690;23;20030;-81
2023/12/11 09:15:52;;;;;;;4.60;1.40;;;10.60;99.90;;;;;;6093668;23;20002;-83
2023/12/11 09:18:18;;;;;;;2.83;0.85;;;10.70;99.90;;;;;;6092416;23;20010;-82
2023/12/11 09:20:43;;;;;;;3.78;1.10;;;10.70;99.90;;;;;;6095217;23;20007;-83
2023/12/11 09:23:10;;;;;;;3.33;1.00;;;10.70;99.80;;;;;;6094111;23;20006;-82
2023/12/11 09:25:36;;;;;;;3.13;1.15;;;10.70;99.60;;;;;;6096179;23;20057;-84
2023/12/11 09:28:02;;;;;;;2.88;1.00;;;10.70;99.40;;;;;;6097149;23;20041;-82
2023/12/11 09:30:28;;;;;;;5.95;1.55;;;10.70;99.30;;;;;;6097972;23;20006;-84
2023/12/11 09:32:54;;;;;;;4.00;1.10;;;10.80;99.20;;;;;;6097734;23;20032;-81
2023/12/11 09:35:19;;;;;;;4.07;1.00;;;10.80;99.00;;;;;;6097747;23;20091;-83
2023/12/11 09:37:46;;;;;;;3.58;0.90;;;10.80;98.90;;;;;;6098788;23;20026;-84
2023/12/11 09:40:12;;;;;;;4.85;1.17;;;10.80;98.70;;;;;;6096644;23;20010;-83
2023/12/11 09:42:40;;;;;;;5.43;1.10;;;10.80;98.60;;;;;;6111185;23;20003;-83
2023/12/11 09:45:08;;;;;;;2.45;1.00;;;10.80;98.50;;;;;;6108001;23;20009;-84
2023/12/11 09:47:47;;;;;;;4.43;1.08;;;10.70;98.40;;;;;;6100299;23;20046;-81
2023/12/11 09:50:14;;;;;;;4.53;1.30;;;10.80;98.30;;;;;;6098672;23;20017;-83
2023/12/11 09:52:42;;;;;;;4.13;1.20;;;10.80;98.20;;;;;;6101846;23;20006;-80
2023/12/11 09:55:09;;;;;;;5.80;1.30;;;10.80;98.10;;;;;;6106178;23;20002;-79
2023/12/11 09:57:40;;;;;;;5.18;1.30;;;10.80;97.80;;;;;;6108116;23;20014;-80
2023/12/11 10:00:07;;;;;;;5.30;1.53;;;10.80;97.70;;;;;;6097943;23;20085;-80
2023/12/11 10:02:33;;;;;;;5.45;1.38;;;10.80;97.50;;;;;;6099531;23;20231;-80
2023/12/11 10:05:07;;;;;;;3.40;1.02;;;10.80;97.50;;;;;;6099472;23;20002;-83
2023/12/11 10:07:34;;;;;;;3.35;1.10;;;10.90;97.50;;;;;;6100353;23;20089;-84
2023/12/11 10:10:26;;;;;;;3.75;1.10;;;10.90;97.40;;;;;;6099227;23;20010;-79
2023/12/11 10:12:53;;;;;;;3.80;1.20;;;10.90;97.20;;;;;;6094394;23;20040;-79
2023/12/11 10:15:23;;;;;;;4.80;1.40;;;10.90;97.10;;;;;;6098233;23;20011;-78
2023/12/11 10:18:03;;;;;;;3.67;0.85;;;10.90;97.00;;;;;;6097987;23;20018;-80
2023/12/11 10:20:29;;;;;;;5.75;1.30;;;10.90;97.10;;;;;;6097454;23;20002;-80
2023/12/11 10:22:55;;;;;;;5.00;1.38;;;11.00;96.90;;;;;;6096594;23;20002;-79
2023/12/11 10:25:26;;;;;;;3.38;1.65;;;10.90;96.90;;;;;;6098171;23;20041;-78
2023/12/11 10:28:08;;;;;;;3.70;1.10;;;10.90;96.90;;;;;;6118330;23;20009;-77
2023/12/11 10:30:48;;;;;;;2.28;0.80;;;10.90;96.80;;;;;;6130515;23;20081;-83
2023/12/11 10:33:13;;;;;;;1.17;0.80;;;10.90;96.90;;;;;;6131317;23;20032;-82
2023/12/11 10:35:39;;;;;;;4.03;1.20;;;10.90;96.90;;;;;;6130497;23;20451;-82
2023/12/11 10:38:05;;;;;;;3.22;1.02;;;10.70;97.00;;;;;;6130924;23;20044;-81
2023/12/11 10:40:38;;;;;;;3.15;1.10;;;10.70;97.20;;;;;;6105788;23;20025;-80
2023/12/11 10:43:04;;;;;;;5.47;1.27;;;10.70;97.30;;;;;;6103492;23;19998;-83
2023/12/11 10:45:31;;;;;;;2.45;1.10;;;10.70;97.40;;;;;;6099783;23;20004;-78
2023/12/11 10:47:58;;;;;;;5.95;1.30;;;10.70;97.50;;;;;;6099160;23;20001;-82
2023/12/11 10:50:24;;;;;;;4.28;1.15;;;10.60;97.40;;;;;;6095668;23;20028;-78
2023/12/11 10:52:50;;;;;;;2.55;1.10;;;10.70;97.60;;;;;;6096843;23;20006;-79
2023/12/11 10:55:16;;;;;;;2.97;1.38;;;10.70;97.50;;;;;;6123501;23;20006;-81
2023/12/11 10:57:43;;;;;;;2.63;1.20;;;10.80;97.40;;;;;;6128087;23;20022;-80
2023/12/11 11:00:13;;;;;;;2.38;0.90;;;10.80;97.40;;;;;;6103522;23;20002;-82
2023/12/11 11:02:46;;;;;;;8.20;1.75;;;10.90;97.50;;;;;;6102306;23;20066;-78
2023/12/11 11:05:13;;;;;;;7.35;1.52;;;10.90;97.20;;;;;;6103326;23;20057;-81
2023/12/11 11:07:49;;;;;;;4.85;1.63;;;10.90;97.20;;;;;;6128766;23;20010;-81
2023/12/11 11:10:27;;;;;;;8.98;1.75;;;10.90;97.20;;;;;;6128922;23;20009;-82
2023/12/11 11:13:08;;;;;;;5.40;1.30;;;10.90;97.10;;;;;;6103581;23;20012;-82
2023/12/11 11:15:34;;;;;;;6.95;2.10;;;10.90;97.00;;;;;;6104726;23;20077;-85
2023/12/11 11:18:07;;;;;;;5.07;1.10;;;10.90;96.80;;;;;;6131436;23;20006;-79
2023/12/11 11:20:34;;;;;;;3.97;1.10;;;10.90;96.80;;;;;;6129399;23;20002;-82
2023/12/11 11:23:18;;;;;;;2.72;1.10;;;10.90;96.80;;;;;;6105543;23;19998;-84
2023/12/11 11:25:52;;;;;;;1.85;0.98;;;10.90;96.80;;;;;;6104432;23;20095;-85
2023/12/11 11:28:40;;;;;;;2.70;1.10;;;10.90;96.70;;;;;;6099569;23;20388;-82
2023/12/11 11:31:10;;;;;;;3.60;1.20;;;10.90;96.70;;;;;;6102434;23;20507;-82
2023/12/11 11:33:44;;;;;;;4.85;1.10;;;10.80;96.70;;;;;;6097963;23;20017;-76
2023/12/11 11:36:09;;;;;;;5.85;1.40;;;10.70;96.80;;;;;;6093415;23;20082;-78
2023/12/11 11:38:58;;;;;;;2.47;0.98;;;10.70;96.90;;;;;;6092207;23;20084;-77
2023/12/11 11:41:29;;;;;;;3.45;1.10;;;10.70;97.10;;;;;;6093161;23;20344;-78
2023/12/11 11:44:06;;;;;;;3.22;1.10;;;10.80;97.10;;;;;;6095270;23;20034;-77
2023/12/11 11:46:49;;;;;;;2.35;0.85;;;10.80;97.00;;;;;;6094340;23;20008;-78
2023/12/11 11:49:32;;;;;;;3.03;0.88;;;10.80;97.10;;;;;;6093078;23;20085;-78
2023/12/11 11:52:02;;;;;;;2.03;0.93;;;10.80;97.10;;;;;;6094399;23;20010;-77
2023/12/11 11:54:31;;;;;;;2.58;1.00;;;10.90;97.10;;;;;;6092647;23;20007;-77
2023/12/11 11:56:56;;;;;;;3.17;0.93;;;10.90;96.90;;;;;;6095086;23;20006;-78
2023/12/11 11:59:22;;;;;;;3.88;1.25;;;11.00;96.90;;;;;;6093165;23;20046;-78
2023/12/11 12:01:52;;;;;;;3.17;1.70;;;11.00;96.70;;;;;;6094172;23;19998;-78
2023/12/11 12:04:34;;;;;;;2.35;1.05;;;11.00;96.70;;;;;;6097143;23;20081;-78
2023/12/11 12:07:04;;;;;;;4.75;0.95;;;11.00;96.60;;;;;;6093263;23;20014;-79
2023/12/11 12:09:31;;;;;;;2.38;0.77;;;11.00;96.40;;;;;;6096695;23;20009;-81
2023/12/11 12:11:58;;;;;;;4.53;1.27;;;11.00;96.00;;;;;;6099003;23;20006;-81
2023/12/11 12:14:25;;;;;;;4.18;1.00;;;10.90;95.90;;;;;;6096289;23;19999;-78
2023/12/11 12:16:52;;;;;;;3.15;1.00;;;11.00;95.80;;;;;;6098158;23;20018;-80
2023/12/11 12:19:32;;;;;;;2.45;0.82;;;11.00;95.70;;;;;;6098267;23;20077;-81
2023/12/11 12:21:58;;;;;;;3.05;1.05;;;11.00;95.50;;;;;;6099768;23;20002;-81
2023/12/11 12:24:24;;;;;;;2.53;0.90;;;11.00;95.30;;;;;;6101415;23;20076;-82
2023/12/11 12:27:06;;;;;;;3.58;1.10;;;11.00;95.30;;;;;;6097512;23;20010;-80
2023/12/11 12:29:33;;;;;;;2.20;0.98;;;11.00;95.00;;;;;;6097216;23;20008;-81
2023/12/11 12:31:59;;;;;;;3.50;0.80;;;11.10;94.90;;;;;;6101476;23;20026;-83
2023/12/11 12:34:27;;;;;;;2.72;0.77;;;11.10;94.80;;;;;;6098292;23;20329;-81
2023/12/11 12:36:58;;;;;;;1.63;0.85;;;11.10;94.70;;;;;;6093039;23;20002;-79
2023/12/11 12:39:23;;;;;;;5.45;1.77;;;11.00;94.50;;;;;;6095304;23;20013;-81
2023/12/11 12:41:49;;;;;;;3.47;1.00;;;11.00;94.40;;;;;;6094148;23;20003;-82
2023/12/11 12:44:19;;;;;;;3.22;1.20;;;10.90;93.90;;;;;;6105996;23;20081;-81